createdAt,value
2022-10-06T00:00:13.628Z,16.40
2022-10-06T00:03:17.799Z,16.40
2022-10-06T00:06:09.196Z,16.40
2022-10-06T00:08:43.656Z,16.40
2022-10-06T00:11:19.082Z,16.40
2022-10-06T00:13:47.654Z,16.40
2022-10-06T00:16:23.578Z,16.40
2022-10-06T00:18:52.789Z,16.50
2022-10-06T00:21:25.094Z,16.50
2022-10-06T00:24:00.952Z,16.50
2022-10-06T00:26:30.728Z,16.40
2022-10-06T00:29:01.513Z,16.40
2022-10-06T00:31:32.206Z,16.50
2022-10-06T00:34:00.638Z,16.50
2022-10-06T00:36:34.450Z,16.60
2022-10-06T00:39:02.689Z,16.50
2022-10-06T00:41:31.258Z,16.50
2022-10-06T00:44:01.273Z,16.40
2022-10-06T00:46:37.455Z,16.30
2022-10-06T00:49:15.969Z,16.20
2022-10-06T00:51:52.540Z,16.10
2022-10-06T00:54:21.492Z,16.10
2022-10-06T00:56:52.610Z,16.20
2022-10-06T00:59:21.324Z,16.20
2022-10-06T01:01:59.547Z,16.20
2022-10-06T01:04:28.469Z,16.20
2022-10-06T01:07:00.660Z,16.20
2022-10-06T01:09:30.262Z,16.10
2022-10-06T01:12:07.158Z,16.10
2022-10-06T01:14:37.048Z,16.10
2022-10-06T01:17:10.657Z,16.10
2022-10-06T01:19:48.591Z,16.20
2022-10-06T01:22:25.073Z,16.30
2022-10-06T01:24:56.462Z,16.30
2022-10-06T01:27:26.883Z,16.20
2022-10-06T01:29:59.056Z,16.20
2022-10-06T01:32:34.639Z,16.20
2022-10-06T01:35:05.425Z,16.10
2022-10-06T01:37:33.631Z,16.00
2022-10-06T01:40:03.256Z,15.90
2022-10-06T01:42:33.630Z,15.90
2022-10-06T01:45:01.652Z,15.90
2022-10-06T01:47:29.789Z,15.80
2022-10-06T01:49:57.987Z,15.70
2022-10-06T01:52:26.628Z,15.80
2022-10-06T01:54:56.275Z,15.80
2022-10-06T01:57:30.259Z,15.90
2022-10-06T01:59:58.574Z,16.00
2022-10-06T02:02:31.704Z,15.90
2022-10-06T02:04:59.861Z,15.90
2022-10-06T02:07:28.133Z,15.90
2022-10-06T02:09:56.537Z,15.80
2022-10-06T02:12:26.211Z,15.70
2022-10-06T02:14:54.656Z,15.60
2022-10-06T02:17:23.118Z,15.60
2022-10-06T02:19:51.365Z,15.50
2022-10-06T02:22:21.199Z,15.60
2022-10-06T02:24:49.531Z,15.40
2022-10-06T02:27:17.985Z,15.30
2022-10-06T02:29:49.377Z,15.20
2022-10-06T02:32:19.235Z,15.20
2022-10-06T02:34:49.905Z,15.20
2022-10-06T02:37:20.079Z,15.20
2022-10-06T02:39:48.566Z,15.20
2022-10-06T02:42:17.425Z,15.30
2022-10-06T02:44:47.157Z,15.30
2022-10-06T02:47:16.336Z,15.20
2022-10-06T02:49:44.442Z,15.20
2022-10-06T02:52:12.469Z,15.10
2022-10-06T02:54:40.596Z,15.10
2022-10-06T02:57:08.763Z,15.00
2022-10-06T02:59:37.135Z,15.00
2022-10-06T03:02:10.105Z,15.00
2022-10-06T03:04:38.312Z,15.00
2022-10-06T03:07:06.613Z,15.10
2022-10-06T03:09:37.384Z,15.20
2022-10-06T03:12:13.468Z,15.30
2022-10-06T03:14:41.641Z,15.30
2022-10-06T03:17:11.212Z,15.20
2022-10-06T03:19:41.409Z,15.20
2022-10-06T03:22:10.557Z,15.20
2022-10-06T03:24:41.392Z,15.20
2022-10-06T03:27:17.208Z,15.20
2022-10-06T03:29:47.580Z,15.20
2022-10-06T03:32:20.214Z,15.10
2022-10-06T03:34:48.472Z,15.10
2022-10-06T03:37:19.094Z,15.10
2022-10-06T03:39:52.911Z,15.10
2022-10-06T03:43:52.026Z,15.10
2022-10-06T03:46:20.910Z,15.10
2022-10-06T03:49:12.554Z,15.10
2022-10-06T03:51:49.717Z,15.10
2022-10-06T03:54:33.720Z,15.10
2022-10-06T03:57:13.413Z,15.00
2022-10-06T03:59:53.065Z,14.90
2022-10-06T04:02:42.217Z,14.90
2022-10-06T04:05:57.631Z,14.80
2022-10-06T04:12:11.081Z,14.70
2022-10-06T04:14:52.262Z,14.60
2022-10-06T04:17:23.343Z,14.60
2022-10-06T04:19:54.349Z,14.60
2022-10-06T04:22:22.499Z,14.60
2022-10-06T04:24:52.071Z,14.60
2022-10-06T04:27:29.182Z,14.60
2022-10-06T04:30:02.078Z,14.50
2022-10-06T04:32:30.466Z,14.50
2022-10-06T04:34:58.879Z,14.60
2022-10-06T04:37:30.093Z,14.50
2022-10-06T04:39:59.678Z,14.50
2022-10-06T04:42:32.660Z,14.40
2022-10-06T04:45:03.153Z,14.30
2022-10-06T04:47:36.751Z,14.30
2022-10-06T04:50:18.288Z,14.20
2022-10-06T04:55:48.564Z,14.20
2022-10-06T04:58:39.686Z,14.20
2022-10-06T05:01:23.038Z,14.30
2022-10-06T05:12:29.282Z,14.10
2022-10-06T05:15:49.462Z,14.00
2022-10-06T05:19:11.943Z,14.00
2022-10-06T05:22:17.057Z,13.90
2022-10-06T05:24:45.264Z,13.60
2022-10-06T05:27:49.576Z,13.30
2022-10-06T05:34:29.021Z,13.00
2022-10-06T05:40:42.585Z,12.80
2022-10-06T05:43:44.635Z,12.70
2022-10-06T05:46:37.816Z,12.50
2022-10-06T05:49:24.533Z,12.40
2022-10-06T05:51:58.932Z,12.30
2022-10-06T05:54:38.277Z,12.30
2022-10-06T05:57:20.921Z,12.10
2022-10-06T05:59:49.334Z,12.00
2022-10-06T06:27:35.831Z,13.60
2022-10-06T07:24:11.320Z,15.20
2022-10-06T07:28:12.505Z,15.10
2022-10-06T07:51:59.588Z,15.00
2022-10-06T09:14:30.571Z,16.10
2022-10-06T09:17:24.582Z,16.30
2022-10-06T09:20:37.242Z,16.50
2022-10-06T09:23:11.561Z,16.70
2022-10-06T09:25:43.479Z,16.80
2022-10-06T09:28:37.513Z,16.80
2022-10-06T09:31:21.104Z,17.00
2022-10-06T09:33:55.031Z,17.10
2022-10-06T09:36:31.995Z,17.20
2022-10-06T09:39:07.230Z,17.40
2022-10-06T09:41:45.859Z,17.50
2022-10-06T09:44:24.924Z,17.50
2022-10-06T09:46:57.883Z,17.60
2022-10-06T09:49:31.493Z,17.50
2022-10-06T09:52:12.140Z,17.50
2022-10-06T09:54:42.091Z,17.60
2022-10-06T09:57:21.065Z,17.80
2022-10-06T09:59:49.787Z,17.80
2022-10-06T10:02:46.770Z,17.60
2022-10-06T10:05:29.569Z,17.90
2022-10-06T10:08:10.160Z,17.80
2022-10-06T10:10:38.897Z,18.00
2022-10-06T10:13:24.477Z,17.90
2022-10-06T10:16:14.304Z,17.80
2022-10-06T10:18:53.101Z,17.60
2022-10-06T10:21:37.255Z,17.60
2022-10-06T10:24:43.413Z,17.70
2022-10-06T10:27:21.072Z,17.80
2022-10-06T10:30:02.859Z,17.70
2022-10-06T10:32:51.522Z,17.70
2022-10-06T10:35:27.640Z,17.80
2022-10-06T10:38:03.475Z,17.90
2022-10-06T10:40:58.736Z,17.80
2022-10-06T10:43:37.288Z,17.90
2022-10-06T10:46:15.056Z,18.00
2022-10-06T10:48:47.783Z,18.00
2022-10-06T10:51:23.909Z,18.10
2022-10-06T10:53:57.858Z,17.80
2022-10-06T10:56:29.302Z,17.70
2022-10-06T10:59:07.455Z,17.60
2022-10-06T11:01:44.091Z,17.50
2022-10-06T11:04:15.516Z,17.40
2022-10-06T11:07:30.689Z,17.30
2022-10-06T11:10:23.026Z,17.30
2022-10-06T11:13:17.940Z,17.40
2022-10-06T11:16:04.159Z,17.50
2022-10-06T11:20:05.258Z,17.80
2022-10-06T11:22:25.705Z,18.00
2022-10-06T11:25:13.876Z,18.10
2022-10-06T11:27:54.616Z,17.90
2022-10-06T11:30:26.738Z,17.80
2022-10-06T11:33:14.563Z,17.80
2022-10-06T11:35:51.947Z,18.00
2022-10-06T11:38:32.619Z,18.20
2022-10-06T11:41:26.030Z,18.30
2022-10-06T11:44:20.386Z,18.30
2022-10-06T11:46:54.782Z,18.10
2022-10-06T11:49:52.243Z,18.10
2022-10-06T11:52:53.915Z,17.90
2022-10-06T11:55:29.123Z,18.00
2022-10-06T11:58:41.422Z,17.80
2022-10-06T12:01:08.412Z,17.90
2022-10-06T12:04:04.380Z,18.10
2022-10-06T12:07:00.711Z,18.40
2022-10-06T12:09:40.476Z,18.30
2022-10-06T12:12:42.457Z,18.10
2022-10-06T12:18:40.612Z,18.00
2022-10-06T12:21:20.192Z,18.20
2022-10-06T12:24:02.126Z,18.50
2022-10-06T12:26:46.560Z,19.00
2022-10-06T12:29:37.172Z,19.30
2022-10-06T12:32:26.595Z,19.20
2022-10-06T12:35:04.458Z,19.30
2022-10-06T12:37:53.924Z,19.60
2022-10-06T12:40:47.226Z,19.90
2022-10-06T12:43:33.016Z,19.30
2022-10-06T12:46:04.942Z,19.20
2022-10-06T12:48:43.126Z,19.00
2022-10-06T12:51:25.700Z,19.00
2022-10-06T12:54:03.753Z,19.00
2022-10-06T12:56:42.962Z,18.50
2022-10-06T12:59:29.821Z,18.20
2022-10-06T13:02:01.221Z,17.90
2022-10-06T13:04:41.383Z,17.70
2022-10-06T13:10:21.343Z,17.30
2022-10-06T13:12:58.185Z,17.30
2022-10-06T13:15:43.227Z,17.30
2022-10-06T13:18:31.062Z,17.50
2022-10-06T13:21:14.063Z,17.70
2022-10-06T13:23:57.554Z,18.10
2022-10-06T13:26:40.208Z,18.00
2022-10-06T13:30:23.639Z,18.10
2022-10-06T13:33:05.467Z,18.20
2022-10-06T13:35:40.077Z,18.10
2022-10-06T13:38:10.225Z,17.90
2022-10-06T13:40:44.979Z,18.10
2022-10-06T13:43:19.845Z,18.10
2022-10-06T13:45:54.055Z,18.10
2022-10-06T13:48:28.672Z,18.20
2022-10-06T13:53:43.381Z,18.40
2022-10-06T13:56:45.220Z,18.40
2022-10-06T13:59:47.496Z,18.40
2022-10-06T14:02:37.014Z,18.10
2022-10-06T14:05:29.200Z,17.60
2022-10-06T14:08:02.274Z,17.40
2022-10-06T14:11:09.976Z,17.30
2022-10-06T14:14:05.343Z,17.20
2022-10-06T14:16:57.599Z,17.00
2022-10-06T14:19:37.504Z,16.90
2022-10-06T14:22:36.823Z,16.90
2022-10-06T14:25:15.922Z,16.90
2022-10-06T14:27:53.822Z,17.00
2022-10-06T14:30:27.258Z,17.10
2022-10-06T14:32:58.961Z,17.20
2022-10-06T14:35:42.185Z,17.30
2022-10-06T14:38:20.060Z,17.40
2022-10-06T14:40:51.120Z,17.50
2022-10-06T14:43:30.072Z,17.60
2022-10-06T14:49:40.813Z,17.70
2022-10-06T14:53:37.748Z,17.70
2022-10-06T15:01:09.119Z,17.20
2022-10-06T15:18:53.706Z,16.70
2022-10-06T16:47:58.099Z,15.10
2022-10-06T16:51:14.812Z,15.10
2022-10-06T16:54:21.003Z,15.10
2022-10-06T17:04:38.924Z,15.00
2022-10-06T17:11:45.659Z,15.00
2022-10-06T17:17:04.658Z,14.80
2022-10-06T19:12:38.756Z,14.40
2022-10-06T21:14:55.402Z,13.40
2022-10-06T21:17:29.739Z,13.40
2022-10-06T21:20:04.643Z,13.40
2022-10-06T21:22:37.030Z,13.40
2022-10-06T21:25:05.751Z,13.40
2022-10-06T21:27:34.094Z,13.40
2022-10-06T21:30:09.824Z,13.40
2022-10-06T21:32:40.048Z,13.40
2022-10-06T21:35:12.801Z,13.30
2022-10-06T21:37:43.548Z,13.30
2022-10-06T21:40:12.809Z,13.30
2022-10-06T21:42:49.611Z,13.30
2022-10-06T21:45:32.946Z,13.20
2022-10-06T21:48:01.445Z,13.20
2022-10-06T21:50:35.052Z,13.20
2022-10-06T21:53:03.172Z,13.10
2022-10-06T21:55:33.906Z,13.10
2022-10-06T21:58:10.528Z,13.10
2022-10-06T22:00:44.366Z,13.10
2022-10-06T22:03:12.845Z,13.10
2022-10-06T22:05:44.036Z,13.00
2022-10-06T22:08:14.850Z,13.00
2022-10-06T22:10:43.124Z,13.00
2022-10-06T22:13:18.753Z,13.00
2022-10-06T22:15:48.563Z,13.00
2022-10-06T22:18:16.878Z,13.00
2022-10-06T22:20:47.160Z,13.00
2022-10-06T22:23:17.005Z,13.00
2022-10-06T22:25:45.226Z,12.90
2022-10-06T22:28:20.531Z,13.00
2022-10-06T22:30:50.446Z,13.00
2022-10-06T22:33:24.223Z,13.00
2022-10-06T22:35:52.956Z,13.00
2022-10-06T22:38:21.761Z,13.00
2022-10-06T22:40:50.202Z,13.00
2022-10-06T22:43:20.523Z,13.00
2022-10-06T22:45:52.087Z,13.10
2022-10-06T22:48:22.093Z,13.10
2022-10-06T22:50:53.358Z,13.10
2022-10-06T22:53:23.587Z,13.10
2022-10-06T22:55:57.142Z,13.10
2022-10-06T22:58:25.491Z,13.10
2022-10-06T23:01:17.106Z,13.20
2022-10-06T23:03:46.383Z,13.20
2022-10-06T23:06:19.265Z,13.20
2022-10-06T23:08:49.823Z,13.20
2022-10-06T23:11:24.177Z,13.20
2022-10-06T23:13:53.197Z,13.20
2022-10-06T23:16:29.037Z,13.20
2022-10-06T23:18:57.190Z,13.20
2022-10-06T23:21:27.841Z,13.20
2022-10-06T23:23:59.142Z,13.20
2022-10-06T23:26:31.710Z,13.20
2022-10-06T23:29:04.834Z,13.10
2022-10-06T23:31:34.609Z,13.20
2022-10-06T23:34:02.845Z,13.10
2022-10-06T23:36:31.723Z,13.10
2022-10-06T23:39:01.147Z,13.10
2022-10-06T23:41:29.426Z,13.00
2022-10-06T23:44:03.248Z,13.00
2022-10-06T23:46:31.515Z,13.00
2022-10-06T23:49:01.663Z,13.00
2022-10-06T23:51:29.839Z,13.00
2022-10-06T23:53:57.989Z,13.00
2022-10-06T23:56:27.736Z,13.00
2022-10-06T23:58:55.795Z,13.00
